Bangalore, India

1:57 PM IST on May 07, 2015 (GMT +0530)
Akshayanagar East, near DLF New Town, Begur | | Change Station
CLOSE
Current Station
Personal Weather Station
Location: Bengaluru, KARNATAKA
Elevation: 2992 ft
Nearby Weather Stations

Elev 2992 ft 12.87 °N, 77.62 °E | Updated 10 seconds ago

Scattered Clouds
Scattered Clouds
83.7 °F
Feels Like 86 °F
N
1.3
Wind Variable Wind from NE
Gusts 2.5 mph

Today
High -- | Low -- °F
--% Chance of Precip.
Yesterday
High -- | Low -- °F
Precip. -- in
5:56 AM 6:35 PM
Waning Gibbous, 89% visible
Pressure 29.95 in
Visibility 6.2 miles
Clouds Scattered Clouds 1500 ft
Scattered Clouds 2000 ft
Heat Index 86 °F
Dew Point 66 °F
Humidity 56%
Rainfall 0.00 in
Snow Depth Not available.
UV 3.0 out of 12
Pollen Not available.
Air Quality Not available.
Flu Activity Not available.
METAR VOBL 070800Z VRB02KT 9999 SCT015 SCT020 34/21 Q1014 NOSIG

More Conditions Fewer Conditions

Pressure 29.95 in
Visibility 6.2 miles
Clouds Scattered Clouds 1500 ft
Scattered Clouds 2000 ft
Heat Index 86 °F
Dew Point 66 °F
Humidity 56%
Rainfall 0.00 in
Snow Depth Not available.
UV 3.0 out of 12
Pollen Not available.
Air Quality Not available.
Flu Activity Not available.
METAR VOBL 070800Z VRB02KT 9999 SCT015 SCT020 34/21 Q1014 NOSIG

More Conditions Fewer Conditions

10-Day Weather Forecast

Almanac

Astronomy

May. 07, 2015 Rise Set
Actual Time
Civil Twilight
Nautical Twilight
Astronomical Twilight
Moon
Length of Visible Light
Length of Day
Tomorrow will be .
, % of the Moon is Illuminated

Today's Extremes

Country Highs Country Lows

Community

WunderPhotos

Upload Photos

1,819,126 photos uploaded!

WunderBlogs® & News

Nearby

Air Quality

  Air Quality AQ Index Pollutant
Not available.

Snow Depth

Station Depth Elevation

Earthquake Activity

City Distance Mag. Time & Date
Minimum magnitude displayed is 2.5.

Coastal Water Temperatures

Place Temperature

Stations

Nearby Weather Stations

Station Location Temp. Windchill Dew Point Humidity Wind Precip. Elev Updated Type